sensor_id;sensor_type;location;lat;lon;timestamp;temperature;humidity
13462;DHT22;6803;45.264;5.468;2023-01-24T00:02:03;0.90;99.90
13462;DHT22;6803;45.264;5.468;2023-01-24T00:04:34;0.90;99.90
13462;DHT22;6803;45.264;5.468;2023-01-24T00:07:04;1.00;99.90
13462;DHT22;6803;45.264;5.468;2023-01-24T00:09:35;1.00;99.90
13462;DHT22;6803;45.264;5.468;2023-01-24T00:12:06;0.90;99.90
13462;DHT22;6803;45.264;5.468;2023-01-24T00:14:37;0.80;99.90
13462;DHT22;6803;45.264;5.468;2023-01-24T00:17:08;0.80;99.90
13462;DHT22;6803;45.264;5.468;2023-01-24T00:19:39;0.90;99.90
13462;DHT22;6803;45.264;5.468;2023-01-24T00:22:10;0.90;99.90
13462;DHT22;6803;45.264;5.468;2023-01-24T00:24:41;0.90;99.90
13462;DHT22;6803;45.264;5.468;2023-01-24T00:27:11;0.80;99.90
13462;DHT22;6803;45.264;5.468;2023-01-24T00:29:42;0.80;99.90
13462;DHT22;6803;45.264;5.468;2023-01-24T00:32:13;0.90;99.90
13462;DHT22;6803;45.264;5.468;2023-01-24T00:34:43;0.90;99.90
13462;DHT22;6803;45.264;5.468;2023-01-24T00:37:14;0.90;99.90
13462;DHT22;6803;45.264;5.468;2023-01-24T00:39:45;0.80;99.90
13462;DHT22;6803;45.264;5.468;2023-01-24T00:42:16;0.90;99.90
13462;DHT22;6803;45.264;5.468;2023-01-24T00:44:48;0.90;99.90
13462;DHT22;6803;45.264;5.468;2023-01-24T00:47:18;1.00;99.90
13462;DHT22;6803;45.264;5.468;2023-01-24T00:49:49;1.00;99.90
13462;DHT22;6803;45.264;5.468;2023-01-24T00:52:20;0.90;99.90
13462;DHT22;6803;45.264;5.468;2023-01-24T00:54:51;0.90;99.90
13462;DHT22;6803;45.264;5.468;2023-01-24T00:57:22;0.90;99.90
13462;DHT22;6803;45.264;5.468;2023-01-24T00:59:53;0.80;99.90
13462;DHT22;6803;45.264;5.468;2023-01-24T01:02:24;0.80;99.90
13462;DHT22;6803;45.264;5.468;2023-01-24T01:04:55;0.80;99.90
13462;DHT22;6803;45.264;5.468;2023-01-24T01:07:26;0.80;99.90
13462;DHT22;6803;45.264;5.468;2023-01-24T01:09:57;0.80;99.90
13462;DHT22;6803;45.264;5.468;2023-01-24T01:12:27;0.80;99.90
13462;DHT22;6803;45.264;5.468;2023-01-24T01:14:58;0.80;99.90
13462;DHT22;6803;45.264;5.468;2023-01-24T01:17:29;0.80;99.90
13462;DHT22;6803;45.264;5.468;2023-01-24T01:20:00;0.80;99.90
13462;DHT22;6803;45.264;5.468;2023-01-24T01:22:31;0.90;99.90
13462;DHT22;6803;45.264;5.468;2023-01-24T01:25:02;0.90;99.90
13462;DHT22;6803;45.264;5.468;2023-01-24T01:27:33;0.80;99.90
13462;DHT22;6803;45.264;5.468;2023-01-24T01:30:05;0.70;99.90
13462;DHT22;6803;45.264;5.468;2023-01-24T01:32:36;0.70;99.90
13462;DHT22;6803;45.264;5.468;2023-01-24T01:35:08;0.70;99.90
13462;DHT22;6803;45.264;5.468;2023-01-24T01:37:39;0.70;99.90
13462;DHT22;6803;45.264;5.468;2023-01-24T01:40:12;0.70;99.90
13462;DHT22;6803;45.264;5.468;2023-01-24T01:42:50;0.70;99.90
13462;DHT22;6803;45.264;5.468;2023-01-24T01:45:39;0.60;99.90
13462;DHT22;6803;45.264;5.468;2023-01-24T01:48:18;0.40;99.90
13462;DHT22;6803;45.264;5.468;2023-01-24T01:50:54;0.40;99.90
13462;DHT22;6803;45.264;5.468;2023-01-24T01:53:28;0.40;99.90
13462;DHT22;6803;45.264;5.468;2023-01-24T01:56:02;0.50;99.90
13462;DHT22;6803;45.264;5.468;2023-01-24T02:01:12;0.60;99.90
13462;DHT22;6803;45.264;5.468;2023-01-24T02:03:46;0.60;99.90
13462;DHT22;6803;45.264;5.468;2023-01-24T02:06:32;0.50;99.90
13462;DHT22;6803;45.264;5.468;2023-01-24T02:09:05;0.50;99.90
13462;DHT22;6803;45.264;5.468;2023-01-24T02:11:39;0.40;99.90
13462;DHT22;6803;45.264;5.468;2023-01-24T02:14:14;0.40;99.90
13462;DHT22;6803;45.264;5.468;2023-01-24T02:17:04;0.30;99.90
13462;DHT22;6803;45.264;5.468;2023-01-24T02:19:45;0.40;99.90
13462;DHT22;6803;45.264;5.468;2023-01-24T02:22:20;0.40;99.90
13462;DHT22;6803;45.264;5.468;2023-01-24T02:24:58;0.40;99.90
13462;DHT22;6803;45.264;5.468;2023-01-24T02:27:28;0.40;99.90
13462;DHT22;6803;45.264;5.468;2023-01-24T02:30:00;0.40;99.90
13462;DHT22;6803;45.264;5.468;2023-01-24T02:32:31;0.30;99.90
13462;DHT22;6803;45.264;5.468;2023-01-24T02:35:01;0.30;99.90
13462;DHT22;6803;45.264;5.468;2023-01-24T02:37:33;0.30;99.90
13462;DHT22;6803;45.264;5.468;2023-01-24T02:40:08;0.30;99.90
13462;DHT22;6803;45.264;5.468;2023-01-24T02:42:40;0.30;99.90
13462;DHT22;6803;45.264;5.468;2023-01-24T02:45:14;0.20;99.90
13462;DHT22;6803;45.264;5.468;2023-01-24T02:47:48;0.20;99.90
13462;DHT22;6803;45.264;5.468;2023-01-24T02:50:20;0.20;99.90
13462;DHT22;6803;45.264;5.468;2023-01-24T02:52:51;0.20;99.90
13462;DHT22;6803;45.264;5.468;2023-01-24T02:55:40;0.20;99.90
13462;DHT22;6803;45.264;5.468;2023-01-24T02:58:29;0.20;99.90
13462;DHT22;6803;45.264;5.468;2023-01-24T03:01:00;0.20;99.90
13462;DHT22;6803;45.264;5.468;2023-01-24T03:03:31;0.30;99.90
13462;DHT22;6803;45.264;5.468;2023-01-24T03:06:01;0.20;99.90
13462;DHT22;6803;45.264;5.468;2023-01-24T03:08:34;0.30;99.90
13462;DHT22;6803;45.264;5.468;2023-01-24T03:11:06;0.20;99.90
13462;DHT22;6803;45.264;5.468;2023-01-24T03:13:38;0.30;99.90
13462;DHT22;6803;45.264;5.468;2023-01-24T03:16:26;0.20;99.90
13462;DHT22;6803;45.264;5.468;2023-01-24T03:19:15;0.10;99.90
13462;DHT22;6803;45.264;5.468;2023-01-24T03:22:03;0.10;99.90
13462;DHT22;6803;45.264;5.468;2023-01-24T03:24:53;0.20;99.90
13462;DHT22;6803;45.264;5.468;2023-01-24T03:27:42;0.10;99.90
13462;DHT22;6803;45.264;5.468;2023-01-24T03:30:30;0.10;99.90
13462;DHT22;6803;45.264;5.468;2023-01-24T03:33:18;0.10;99.90
13462;DHT22;6803;45.264;5.468;2023-01-24T03:36:07;0.00;99.90
13462;DHT22;6803;45.264;5.468;2023-01-24T03:38:39;0.10;99.90
13462;DHT22;6803;45.264;5.468;2023-01-24T03:41:28;0.10;99.90
13462;DHT22;6803;45.264;5.468;2023-01-24T03:43:58;0.10;99.90
13462;DHT22;6803;45.264;5.468;2023-01-24T03:46:31;0.10;99.90
13462;DHT22;6803;45.264;5.468;2023-01-24T03:49:02;0.00;99.90
13462;DHT22;6803;45.264;5.468;2023-01-24T03:51:33;0.00;99.90
13462;DHT22;6803;45.264;5.468;2023-01-24T03:54:21;0.00;99.90
13462;DHT22;6803;45.264;5.468;2023-01-24T03:56:52;0.00;99.90
13462;DHT22;6803;45.264;5.468;2023-01-24T03:59:23;0.00;99.90
13462;DHT22;6803;45.264;5.468;2023-01-24T04:01:54;-0.10;99.90
13462;DHT22;6803;45.264;5.468;2023-01-24T04:04:25;-0.10;99.90
13462;DHT22;6803;45.264;5.468;2023-01-24T04:06:57;-0.10;99.90
13462;DHT22;6803;45.264;5.468;2023-01-24T04:09:28;-0.10;99.90
13462;DHT22;6803;45.264;5.468;2023-01-24T04:11:59;-0.10;99.90
13462;DHT22;6803;45.264;5.468;2023-01-24T04:14:30;-0.10;99.90
13462;DHT22;6803;45.264;5.468;2023-01-24T04:17:01;-0.20;99.90
13462;DHT22;6803;45.264;5.468;2023-01-24T04:19:32;-0.30;99.90
13462;DHT22;6803;45.264;5.468;2023-01-24T04:22:03;-0.30;99.90
13462;DHT22;6803;45.264;5.468;2023-01-24T04:24:34;-0.30;99.90
13462;DHT22;6803;45.264;5.468;2023-01-24T04:27:04;-0.40;99.90
13462;DHT22;6803;45.264;5.468;2023-01-24T04:29:35;-0.50;99.90
13462;DHT22;6803;45.264;5.468;2023-01-24T04:32:07;-0.50;99.90
13462;DHT22;6803;45.264;5.468;2023-01-24T04:34:38;-0.50;99.90
13462;DHT22;6803;45.264;5.468;2023-01-24T04:37:08;-0.50;99.90
13462;DHT22;6803;45.264;5.468;2023-01-24T04:39:40;-0.40;99.90
13462;DHT22;6803;45.264;5.468;2023-01-24T04:42:10;-0.50;99.90
13462;DHT22;6803;45.264;5.468;2023-01-24T04:44:41;-0.50;99.90
13462;DHT22;6803;45.264;5.468;2023-01-24T04:47:12;-0.50;99.90
13462;DHT22;6803;45.264;5.468;2023-01-24T04:49:43;-0.50;99.90
13462;DHT22;6803;45.264;5.468;2023-01-24T04:52:14;-0.50;99.90
13462;DHT22;6803;45.264;5.468;2023-01-24T04:54:45;-0.40;99.90
13462;DHT22;6803;45.264;5.468;2023-01-24T04:57:16;-0.40;99.90
13462;DHT22;6803;45.264;5.468;2023-01-24T04:59:46;-0.40;99.90
13462;DHT22;6803;45.264;5.468;2023-01-24T05:02:17;-0.40;99.90
13462;DHT22;6803;45.264;5.468;2023-01-24T05:04:48;-0.40;99.90
13462;DHT22;6803;45.264;5.468;2023-01-24T05:07:19;-0.40;99.90
13462;DHT22;6803;45.264;5.468;2023-01-24T05:09:49;-0.40;99.90
13462;DHT22;6803;45.264;5.468;2023-01-24T05:12:20;-0.40;99.90
13462;DHT22;6803;45.264;5.468;2023-01-24T05:14:51;-0.40;99.90
13462;DHT22;6803;45.264;5.468;2023-01-24T05:17:22;-0.30;99.90
13462;DHT22;6803;45.264;5.468;2023-01-24T05:19:53;-0.40;99.90
13462;DHT22;6803;45.264;5.468;2023-01-24T05:22:24;-0.40;99.90
13462;DHT22;6803;45.264;5.468;2023-01-24T05:24:56;-0.40;99.90
13462;DHT22;6803;45.264;5.468;2023-01-24T05:27:27;-0.40;99.90
13462;DHT22;6803;45.264;5.468;2023-01-24T05:29:57;-0.40;99.90
13462;DHT22;6803;45.264;5.468;2023-01-24T05:32:28;-0.50;99.90
13462;DHT22;6803;45.264;5.468;2023-01-24T05:34:59;-0.40;99.90
13462;DHT22;6803;45.264;5.468;2023-01-24T05:37:30;-0.40;99.90
13462;DHT22;6803;45.264;5.468;2023-01-24T05:40:00;-0.40;99.90
13462;DHT22;6803;45.264;5.468;2023-01-24T05:42:32;-0.30;99.90
13462;DHT22;6803;45.264;5.468;2023-01-24T05:45:05;-0.30;99.90
13462;DHT22;6803;45.264;5.468;2023-01-24T05:47:36;-0.40;99.90
13462;DHT22;6803;45.264;5.468;2023-01-24T05:50:09;-0.40;99.90
13462;DHT22;6803;45.264;5.468;2023-01-24T05:52:40;-0.40;99.90
13462;DHT22;6803;45.264;5.468;2023-01-24T05:55:12;-0.50;99.90
13462;DHT22;6803;45.264;5.468;2023-01-24T05:57:43;-0.50;99.90
13462;DHT22;6803;45.264;5.468;2023-01-24T06:00:16;-0.40;99.90
13462;DHT22;6803;45.264;5.468;2023-01-24T06:02:47;-0.40;99.90
13462;DHT22;6803;45.264;5.468;2023-01-24T06:05:18;-0.50;99.90
13462;DHT22;6803;45.264;5.468;2023-01-24T06:07:49;-0.50;99.90
13462;DHT22;6803;45.264;5.468;2023-01-24T06:10:20;-0.60;99.90
13462;DHT22;6803;45.264;5.468;2023-01-24T06:12:51;-0.60;99.90
13462;DHT22;6803;45.264;5.468;2023-01-24T06:15:22;-0.50;99.90
13462;DHT22;6803;45.264;5.468;2023-01-24T06:17:52;-0.50;99.90
13462;DHT22;6803;45.264;5.468;2023-01-24T06:20:24;-0.60;99.90
13462;DHT22;6803;45.264;5.468;2023-01-24T06:22:58;-0.60;99.90
13462;DHT22;6803;45.264;5.468;2023-01-24T06:25:31;-0.60;99.90
13462;DHT22;6803;45.264;5.468;2023-01-24T06:28:03;-0.60;99.90
13462;DHT22;6803;45.264;5.468;2023-01-24T06:30:35;-0.70;99.90
13462;DHT22;6803;45.264;5.468;2023-01-24T06:33:19;-0.80;99.90
13462;DHT22;6803;45.264;5.468;2023-01-24T06:36:01;-0.90;99.90
13462;DHT22;6803;45.264;5.468;2023-01-24T06:38:32;-0.90;99.90
13462;DHT22;6803;45.264;5.468;2023-01-24T06:41:13;-0.90;99.90
13462;DHT22;6803;45.264;5.468;2023-01-24T06:43:37;-0.90;99.90
13462;DHT22;6803;45.264;5.468;2023-01-24T06:46:09;-0.90;99.90
13462;DHT22;6803;45.264;5.468;2023-01-24T06:48:44;-1.00;99.90
13462;DHT22;6803;45.264;5.468;2023-01-24T06:51:15;-1.00;99.90
13462;DHT22;6803;45.264;5.468;2023-01-24T06:53:46;-1.20;99.90
13462;DHT22;6803;45.264;5.468;2023-01-24T06:56:16;-1.20;99.90
13462;DHT22;6803;45.264;5.468;2023-01-24T06:58:47;-1.00;99.90
13462;DHT22;6803;45.264;5.468;2023-01-24T07:01:18;-1.00;99.90
13462;DHT22;6803;45.264;5.468;2023-01-24T07:03:49;-1.10;99.90
13462;DHT22;6803;45.264;5.468;2023-01-24T07:06:19;-1.10;99.90
13462;DHT22;6803;45.264;5.468;2023-01-24T07:08:52;-1.10;99.90
13462;DHT22;6803;45.264;5.468;2023-01-24T07:11:23;-1.10;99.90
13462;DHT22;6803;45.264;5.468;2023-01-24T07:13:53;-1.10;99.90
13462;DHT22;6803;45.264;5.468;2023-01-24T07:16:26;-1.10;99.90
13462;DHT22;6803;45.264;5.468;2023-01-24T07:18:58;-1.20;99.90
13462;DHT22;6803;45.264;5.468;2023-01-24T07:21:30;-1.20;99.90
13462;DHT22;6803;45.264;5.468;2023-01-24T07:24:04;-1.10;99.90
13462;DHT22;6803;45.264;5.468;2023-01-24T07:26:37;-1.20;99.90
13462;DHT22;6803;45.264;5.468;2023-01-24T07:29:08;-1.30;99.90
13462;DHT22;6803;45.264;5.468;2023-01-24T07:31:39;-1.20;99.90
13462;DHT22;6803;45.264;5.468;2023-01-24T07:34:10;-1.10;99.90
13462;DHT22;6803;45.264;5.468;2023-01-24T07:36:43;-1.00;99.90
13462;DHT22;6803;45.264;5.468;2023-01-24T07:39:14;-1.00;99.90
13462;DHT22;6803;45.264;5.468;2023-01-24T07:41:45;-1.00;99.90
13462;DHT22;6803;45.264;5.468;2023-01-24T07:44:16;-0.90;99.90
13462;DHT22;6803;45.264;5.468;2023-01-24T07:46:47;-0.80;99.90
13462;DHT22;6803;45.264;5.468;2023-01-24T07:49:17;-0.90;99.90
13462;DHT22;6803;45.264;5.468;2023-01-24T07:51:48;-0.80;99.90
13462;DHT22;6803;45.264;5.468;2023-01-24T07:54:19;-0.80;99.90
13462;DHT22;6803;45.264;5.468;2023-01-24T07:56:49;-0.90;99.90
13462;DHT22;6803;45.264;5.468;2023-01-24T07:59:20;-0.80;99.90
13462;DHT22;6803;45.264;5.468;2023-01-24T08:01:52;-0.80;99.90
13462;DHT22;6803;45.264;5.468;2023-01-24T08:04:24;-0.90;99.90
13462;DHT22;6803;45.264;5.468;2023-01-24T08:06:54;-0.90;99.90
13462;DHT22;6803;45.264;5.468;2023-01-24T08:09:42;-0.90;99.90
13462;DHT22;6803;45.264;5.468;2023-01-24T08:12:14;-0.90;99.90
13462;DHT22;6803;45.264;5.468;2023-01-24T08:14:45;-0.90;99.90
13462;DHT22;6803;45.264;5.468;2023-01-24T08:17:15;-0.90;99.90
13462;DHT22;6803;45.264;5.468;2023-01-24T08:19:46;-0.90;99.90
13462;DHT22;6803;45.264;5.468;2023-01-24T08:22:19;-0.90;99.90
13462;DHT22;6803;45.264;5.468;2023-01-24T08:24:49;-0.80;99.90
13462;DHT22;6803;45.264;5.468;2023-01-24T08:27:20;-0.70;99.90
13462;DHT22;6803;45.264;5.468;2023-01-24T08:29:51;-0.70;99.90
13462;DHT22;6803;45.264;5.468;2023-01-24T08:32:22;-0.60;99.90
13462;DHT22;6803;45.264;5.468;2023-01-24T08:34:53;-0.50;99.90
13462;DHT22;6803;45.264;5.468;2023-01-24T08:37:23;-0.50;99.90
13462;DHT22;6803;45.264;5.468;2023-01-24T08:39:54;-0.40;99.90
13462;DHT22;6803;45.264;5.468;2023-01-24T08:42:25;-0.30;99.90
13462;DHT22;6803;45.264;5.468;2023-01-24T08:44:56;-0.30;99.90
13462;DHT22;6803;45.264;5.468;2023-01-24T08:47:27;-0.20;99.90
13462;DHT22;6803;45.264;5.468;2023-01-24T08:49:58;-0.20;99.90
13462;DHT22;6803;45.264;5.468;2023-01-24T08:52:29;-0.10;99.90
13462;DHT22;6803;45.264;5.468;2023-01-24T08:54:59;-0.10;99.90
13462;DHT22;6803;45.264;5.468;2023-01-24T08:57:30;-0.10;99.90
13462;DHT22;6803;45.264;5.468;2023-01-24T09:00:01;0.00;99.90
13462;DHT22;6803;45.264;5.468;2023-01-24T09:02:33;0.00;99.90
13462;DHT22;6803;45.264;5.468;2023-01-24T09:05:08;0.10;99.90
13462;DHT22;6803;45.264;5.468;2023-01-24T09:07:39;0.20;99.90
13462;DHT22;6803;45.264;5.468;2023-01-24T09:10:12;0.30;99.90
13462;DHT22;6803;45.264;5.468;2023-01-24T09:12:42;0.40;99.90
13462;DHT22;6803;45.264;5.468;2023-01-24T09:15:13;0.50;99.90
13462;DHT22;6803;45.264;5.468;2023-01-24T09:17:44;0.50;99.90
13462;DHT22;6803;45.264;5.468;2023-01-24T09:20:15;0.50;99.90
13462;DHT22;6803;45.264;5.468;2023-01-24T09:22:47;0.60;99.90
13462;DHT22;6803;45.264;5.468;2023-01-24T09:25:18;0.70;99.90
13462;DHT22;6803;45.264;5.468;2023-01-24T09:27:54;0.70;99.90
13462;DHT22;6803;45.264;5.468;2023-01-24T09:30:25;0.70;99.90
13462;DHT22;6803;45.264;5.468;2023-01-24T09:32:56;0.80;99.90
13462;DHT22;6803;45.264;5.468;2023-01-24T09:35:27;0.80;99.90
13462;DHT22;6803;45.264;5.468;2023-01-24T09:37:58;0.90;99.90
13462;DHT22;6803;45.264;5.468;2023-01-24T09:40:40;1.00;99.90
13462;DHT22;6803;45.264;5.468;2023-01-24T09:43:06;1.00;99.90
13462;DHT22;6803;45.264;5.468;2023-01-24T09:45:40;1.10;99.90
13462;DHT22;6803;45.264;5.468;2023-01-24T09:48:13;1.10;99.90
13462;DHT22;6803;45.264;5.468;2023-01-24T09:50:48;1.20;99.90
13462;DHT22;6803;45.264;5.468;2023-01-24T09:53:23;1.30;99.90
13462;DHT22;6803;45.264;5.468;2023-01-24T09:55:54;1.40;99.90
13462;DHT22;6803;45.264;5.468;2023-01-24T09:58:28;1.20;99.90
13462;DHT22;6803;45.264;5.468;2023-01-24T10:01:02;1.20;99.90
13462;DHT22;6803;45.264;5.468;2023-01-24T10:03:35;1.30;99.90
13462;DHT22;6803;45.264;5.468;2023-01-24T10:06:14;1.40;99.90
13462;DHT22;6803;45.264;5.468;2023-01-24T10:08:47;1.50;99.90
13462;DHT22;6803;45.264;5.468;2023-01-24T10:11:24;1.50;99.90
13462;DHT22;6803;45.264;5.468;2023-01-24T10:14:02;1.70;99.90
13462;DHT22;6803;45.264;5.468;2023-01-24T10:17:02;1.60;99.90
13462;DHT22;6803;45.264;5.468;2023-01-24T10:19:48;1.60;99.90
13462;DHT22;6803;45.264;5.468;2023-01-24T10:22:27;1.40;99.90
13462;DHT22;6803;45.264;5.468;2023-01-24T10:25:00;1.50;99.90
13462;DHT22;6803;45.264;5.468;2023-01-24T10:27:35;1.70;99.90
13462;DHT22;6803;45.264;5.468;2023-01-24T10:30:13;1.80;99.90
13462;DHT22;6803;45.264;5.468;2023-01-24T10:33:05;1.80;99.90
13462;DHT22;6803;45.264;5.468;2023-01-24T10:35:43;1.90;99.90
13462;DHT22;6803;45.264;5.468;2023-01-24T10:38:13;1.80;99.90
13462;DHT22;6803;45.264;5.468;2023-01-24T10:40:51;1.90;99.90
13462;DHT22;6803;45.264;5.468;2023-01-24T10:43:25;1.90;99.90
13462;DHT22;6803;45.264;5.468;2023-01-24T10:46:11;2.10;99.90
13462;DHT22;6803;45.264;5.468;2023-01-24T10:48:44;2.20;99.90
13462;DHT22;6803;45.264;5.468;2023-01-24T10:51:17;2.10;99.90
13462;DHT22;6803;45.264;5.468;2023-01-24T10:53:49;2.20;99.90
13462;DHT22;6803;45.264;5.468;2023-01-24T10:56:21;2.40;99.90
13462;DHT22;6803;45.264;5.468;2023-01-24T10:59:02;2.50;99.90
13462;DHT22;6803;45.264;5.468;2023-01-24T11:01:37;2.80;99.90
13462;DHT22;6803;45.264;5.468;2023-01-24T11:04:19;3.00;99.90
13462;DHT22;6803;45.264;5.468;2023-01-24T11:06:50;2.90;99.90
13462;DHT22;6803;45.264;5.468;2023-01-24T11:09:26;2.90;99.90
13462;DHT22;6803;45.264;5.468;2023-01-24T11:11:55;2.80;99.90
13462;DHT22;6803;45.264;5.468;2023-01-24T11:14:30;2.90;99.90
13462;DHT22;6803;45.264;5.468;2023-01-24T11:17:01;2.90;99.90
13462;DHT22;6803;45.264;5.468;2023-01-24T11:19:33;3.10;99.90
13462;DHT22;6803;45.264;5.468;2023-01-24T11:22:19;3.10;99.90
13462;DHT22;6803;45.264;5.468;2023-01-24T11:24:50;3.30;99.90
13462;DHT22;6803;45.264;5.468;2023-01-24T11:27:22;3.60;99.90
13462;DHT22;6803;45.264;5.468;2023-01-24T11:30:13;3.70;99.90
13462;DHT22;6803;45.264;5.468;2023-01-24T11:32:43;4.00;99.90
13462;DHT22;6803;45.264;5.468;2023-01-24T11:35:16;4.10;99.90
13462;DHT22;6803;45.264;5.468;2023-01-24T11:38:08;4.30;99.90
13462;DHT22;6803;45.264;5.468;2023-01-24T11:40:41;4.20;99.90
13462;DHT22;6803;45.264;5.468;2023-01-24T11:43:28;4.60;99.90
13462;DHT22;6803;45.264;5.468;2023-01-24T11:52:36;5.00;99.90
13462;DHT22;6803;45.264;5.468;2023-01-24T11:55:12;5.10;99.90
13462;DHT22;6803;45.264;5.468;2023-01-24T11:57:47;5.10;99.90
13462;DHT22;6803;45.264;5.468;2023-01-24T12:00:25;5.60;99.90
13462;DHT22;6803;45.264;5.468;2023-01-24T12:03:20;5.40;99.90
13462;DHT22;6803;45.264;5.468;2023-01-24T12:06:06;5.20;99.90
13462;DHT22;6803;45.264;5.468;2023-01-24T12:08:45;4.90;99.90
13462;DHT22;6803;45.264;5.468;2023-01-24T12:11:22;4.90;99.90
13462;DHT22;6803;45.264;5.468;2023-01-24T12:14:04;4.90;99.90
13462;DHT22;6803;45.264;5.468;2023-01-24T12:16:40;4.70;99.90
13462;DHT22;6803;45.264;5.468;2023-01-24T12:19:31;4.70;99.90
13462;DHT22;6803;45.264;5.468;2023-01-24T12:22:05;4.70;99.90
13462;DHT22;6803;45.264;5.468;2023-01-24T12:24:39;5.40;99.90
13462;DHT22;6803;45.264;5.468;2023-01-24T12:27:14;5.90;99.90
13462;DHT22;6803;45.264;5.468;2023-01-24T12:29:48;5.20;99.90
13462;DHT22;6803;45.264;5.468;2023-01-24T12:32:24;5.40;99.90
13462;DHT22;6803;45.264;5.468;2023-01-24T12:35:02;5.40;99.90
13462;DHT22;6803;45.264;5.468;2023-01-24T12:37:49;6.00;99.90
13462;DHT22;6803;45.264;5.468;2023-01-24T12:40:28;5.80;99.90
13462;DHT22;6803;45.264;5.468;2023-01-24T12:43:02;6.20;99.90
13462;DHT22;6803;45.264;5.468;2023-01-24T12:45:36;6.10;99.90
13462;DHT22;6803;45.264;5.468;2023-01-24T12:48:10;5.90;99.90
13462;DHT22;6803;45.264;5.468;2023-01-24T12:50:46;6.10;99.90
13462;DHT22;6803;45.264;5.468;2023-01-24T12:53:18;6.70;99.90
13462;DHT22;6803;45.264;5.468;2023-01-24T12:55:54;6.00;99.90
13462;DHT22;6803;45.264;5.468;2023-01-24T12:58:27;5.60;99.90
13462;DHT22;6803;45.264;5.468;2023-01-24T13:01:20;5.20;99.90
13462;DHT22;6803;45.264;5.468;2023-01-24T13:04:00;5.60;99.90
13462;DHT22;6803;45.264;5.468;2023-01-24T13:06:37;5.90;99.90
13462;DHT22;6803;45.264;5.468;2023-01-24T13:09:14;6.00;99.90
13462;DHT22;6803;45.264;5.468;2023-01-24T13:11:47;6.50;99.90
13462;DHT22;6803;45.264;5.468;2023-01-24T13:14:21;5.70;99.90
13462;DHT22;6803;45.264;5.468;2023-01-24T13:17:14;5.40;99.90
13462;DHT22;6803;45.264;5.468;2023-01-24T13:19:50;5.60;99.90
13462;DHT22;6803;45.264;5.468;2023-01-24T13:22:35;6.20;99.90
13462;DHT22;6803;45.264;5.468;2023-01-24T13:25:16;5.30;99.90
13462;DHT22;6803;45.264;5.468;2023-01-24T13:27:48;5.00;99.90
13462;DHT22;6803;45.264;5.468;2023-01-24T13:30:26;5.20;99.90
13462;DHT22;6803;45.264;5.468;2023-01-24T13:33:00;5.20;99.90
13462;DHT22;6803;45.264;5.468;2023-01-24T13:35:33;4.80;99.90
13462;DHT22;6803;45.264;5.468;2023-01-24T13:38:06;5.10;99.90
13462;DHT22;6803;45.264;5.468;2023-01-24T13:40:38;5.10;99.90
13462;DHT22;6803;45.264;5.468;2023-01-24T13:46:15;5.20;99.90
13462;DHT22;6803;45.264;5.468;2023-01-24T13:48:54;5.20;99.90
13462;DHT22;6803;45.264;5.468;2023-01-24T13:51:35;5.10;99.90
13462;DHT22;6803;45.264;5.468;2023-01-24T13:54:15;5.00;99.90
13462;DHT22;6803;45.264;5.468;2023-01-24T13:57:21;4.90;99.90
13462;DHT22;6803;45.264;5.468;2023-01-24T14:00:17;4.90;99.90
13462;DHT22;6803;45.264;5.468;2023-01-24T14:03:04;4.90;99.90
13462;DHT22;6803;45.264;5.468;2023-01-24T14:06:04;5.00;99.90
13462;DHT22;6803;45.264;5.468;2023-01-24T14:08:51;4.80;99.90
13462;DHT22;6803;45.264;5.468;2023-01-24T14:11:37;4.60;99.90
13462;DHT22;6803;45.264;5.468;2023-01-24T14:14:33;4.60;99.90
13462;DHT22;6803;45.264;5.468;2023-01-24T14:19:58;4.60;99.90
13462;DHT22;6803;45.264;5.468;2023-01-24T14:22:42;4.40;99.90
13462;DHT22;6803;45.264;5.468;2023-01-24T14:31:05;4.70;99.90
13462;DHT22;6803;45.264;5.468;2023-01-24T14:33:44;4.70;99.90
13462;DHT22;6803;45.264;5.468;2023-01-24T14:36:28;4.60;99.90
13462;DHT22;6803;45.264;5.468;2023-01-24T14:39:17;4.60;99.90
13462;DHT22;6803;45.264;5.468;2023-01-24T14:41:51;4.60;99.90
13462;DHT22;6803;45.264;5.468;2023-01-24T14:44:25;4.60;99.90
13462;DHT22;6803;45.264;5.468;2023-01-24T14:46:58;4.60;99.90
13462;DHT22;6803;45.264;5.468;2023-01-24T14:49:34;4.50;99.90
13462;DHT22;6803;45.264;5.468;2023-01-24T14:52:18;4.60;99.90
13462;DHT22;6803;45.264;5.468;2023-01-24T14:54:54;4.60;99.90
13462;DHT22;6803;45.264;5.468;2023-01-24T14:57:26;4.50;99.90
13462;DHT22;6803;45.264;5.468;2023-01-24T15:00:04;4.40;99.90
13462;DHT22;6803;45.264;5.468;2023-01-24T15:02:37;4.40;99.90
13462;DHT22;6803;45.264;5.468;2023-01-24T15:05:24;4.30;99.90
13462;DHT22;6803;45.264;5.468;2023-01-24T15:07:56;4.30;99.90
13462;DHT22;6803;45.264;5.468;2023-01-24T15:10:28;4.20;99.90
13462;DHT22;6803;45.264;5.468;2023-01-24T15:13:02;4.20;99.90
13462;DHT22;6803;45.264;5.468;2023-01-24T15:15:34;4.10;99.90
13462;DHT22;6803;45.264;5.468;2023-01-24T15:18:17;4.00;99.90
13462;DHT22;6803;45.264;5.468;2023-01-24T15:20:39;4.00;99.90
13462;DHT22;6803;45.264;5.468;2023-01-24T15:23:17;4.00;99.90
13462;DHT22;6803;45.264;5.468;2023-01-24T15:25:49;3.90;99.90
13462;DHT22;6803;45.264;5.468;2023-01-24T15:28:23;4.00;99.90
13462;DHT22;6803;45.264;5.468;2023-01-24T15:30:55;3.90;99.90
13462;DHT22;6803;45.264;5.468;2023-01-24T15:33:38;3.90;99.90
13462;DHT22;6803;45.264;5.468;2023-01-24T15:36:21;3.90;99.90
13462;DHT22;6803;45.264;5.468;2023-01-24T15:38:54;3.80;99.90
13462;DHT22;6803;45.264;5.468;2023-01-24T15:41:27;3.80;99.90
13462;DHT22;6803;45.264;5.468;2023-01-24T15:44:05;3.80;99.90
13462;DHT22;6803;45.264;5.468;2023-01-24T15:46:39;3.70;99.90
13462;DHT22;6803;45.264;5.468;2023-01-24T15:49:30;3.60;99.90
13462;DHT22;6803;45.264;5.468;2023-01-24T15:52:19;3.60;99.90
13462;DHT22;6803;45.264;5.468;2023-01-24T15:54:56;3.50;99.90
13462;DHT22;6803;45.264;5.468;2023-01-24T15:57:30;3.40;99.90
13462;DHT22;6803;45.264;5.468;2023-01-24T16:00:17;3.30;99.90
13462;DHT22;6803;45.264;5.468;2023-01-24T16:02:35;3.30;99.90
13462;DHT22;6803;45.264;5.468;2023-01-24T16:05:12;3.30;99.90
13462;DHT22;6803;45.264;5.468;2023-01-24T16:07:44;3.40;99.90
13462;DHT22;6803;45.264;5.468;2023-01-24T16:10:17;3.40;99.90
13462;DHT22;6803;45.264;5.468;2023-01-24T16:12:49;3.40;99.90
13462;DHT22;6803;45.264;5.468;2023-01-24T16:15:21;3.40;99.90
13462;DHT22;6803;45.264;5.468;2023-01-24T16:17:52;3.30;99.90
13462;DHT22;6803;45.264;5.468;2023-01-24T16:20:25;3.40;99.90
13462;DHT22;6803;45.264;5.468;2023-01-24T16:22:56;3.30;99.90
13462;DHT22;6803;45.264;5.468;2023-01-24T16:25:27;3.30;99.90
13462;DHT22;6803;45.264;5.468;2023-01-24T16:27:58;3.30;99.90
13462;DHT22;6803;45.264;5.468;2023-01-24T16:30:29;3.30;99.90
13462;DHT22;6803;45.264;5.468;2023-01-24T16:32:59;3.30;99.90
13462;DHT22;6803;45.264;5.468;2023-01-24T16:35:30;3.30;99.90
13462;DHT22;6803;45.264;5.468;2023-01-24T16:38:01;3.30;99.90
13462;DHT22;6803;45.264;5.468;2023-01-24T16:40:33;3.20;99.90
13462;DHT22;6803;45.264;5.468;2023-01-24T16:43:05;3.10;99.90
13462;DHT22;6803;45.264;5.468;2023-01-24T16:45:36;3.20;99.90
13462;DHT22;6803;45.264;5.468;2023-01-24T16:48:07;3.30;99.90
13462;DHT22;6803;45.264;5.468;2023-01-24T16:50:40;3.30;99.90
13462;DHT22;6803;45.264;5.468;2023-01-24T16:53:12;3.20;99.90
13462;DHT22;6803;45.264;5.468;2023-01-24T16:55:43;3.20;99.90
13462;DHT22;6803;45.264;5.468;2023-01-24T16:58:14;3.20;99.90
13462;DHT22;6803;45.264;5.468;2023-01-24T17:00:44;3.20;99.90
13462;DHT22;6803;45.264;5.468;2023-01-24T17:03:16;3.20;99.90
13462;DHT22;6803;45.264;5.468;2023-01-24T17:05:47;3.30;99.90